Ossineke, MI

3:57 AM EST on November 27, 2014 (GMT -0500)
Oscoda-Wurtsmith | Change Station
CLOSE
Current Station
Airport
Location: Oscoda,
Elevation: 633 ft
Nearby Weather Stations
Active Advisory: Winter Weather Advisory

Elev 633 ft 44.45 °N, 83.39 °W | Updated 24 minutes ago

Snow
Snow
27 °F
Feels Like 18 °F
N
10
Wind Variable Wind from NW

Today
High -- | Low -- °F
--% Chance of Precip.
Yesterday
High -- | Low -- °F
Precip. -- in
7:46 AM 4:55 PM
Waxing Crescent, 27% visible
Pressure 30.07 in
Visibility 10.0 miles
Clouds Overcast 5000 ft
Windchill 18 °F
Dew Point 22 °F
Humidity 83%
Rainfall 0.00 in
Snow Depth Not available.
UV 0 out of 12
Pollen .10 out of 12
Air Quality Not available.
Flu Activity Not available.
METAR KOSC 270833Z AUTO 31009KT 10SM OVC050 M02/M05 A3007 RMK AO2 T10271053

More Conditions Fewer Conditions

Pressure 30.07 in
Visibility 10.0 miles
Clouds Overcast 5000 ft
Windchill 18 °F
Dew Point 22 °F
Humidity 83%
Rainfall 0.00 in
Snow Depth Not available.
UV 0 out of 12
Pollen .10 out of 12
Air Quality Not available.
Flu Activity Not available.
METAR KOSC 270833Z AUTO 31009KT 10SM OVC050 M02/M05 A3007 RMK AO2 T10271053

More Conditions Fewer Conditions

Nowcast | as of 3:00 am EST on November 27, 2014

Winter Weather Advisory in effect until 1 PM EST this afternoon... At 4 am...snow showers. Temperature 26. North winds 5 mph. At 6 am...snow showers. Temperature 25. North winds 5 mph. At 8 am...snow. Snow may be heavy at times. Temperature 25. North winds 6 mph. At 10 am...snow. Snow may be heavy at times. Temperature 27. Northwest winds 8 mph.

×

10-Day Weather Forecast

Almanac

Astronomy

Nov. 27, 2014 Rise Set
Actual Time
Civil Twilight
Nautical Twilight
Astronomical Twilight
Moon
Length of Visible Light
Length of Day
Tomorrow will be .
, % of the Moon is Illuminated

Today's Extremes

State Highs State Lows

Community

WunderPhotos

Upload Photos

1,773,965 photos uploaded!

WunderBlogs® & News

Nearby

Air Quality

  Air Quality AQ Index Pollutant
Not available.

Snow Depth

Station Depth Elevation

Earthquake Activity

City Distance Mag. Time & Date
Minimum magnitude displayed is 2.5.

Coastal Water Temperatures

Place Temperature

Nearby Weather Stations